Time;durP1;ratioP1;P1;durP2;ratioP2;P2;SDS_P1;SDS_P2;PMS_P1;PMS_P2;Temp;Humidity;BMP_temperature;BMP_pressure;BME280_temperature;BME280_humidity;BME280_pressure;Samples;Min_cycle;Max_cycle;Signal;HPM_P1;HPM_P2
2023/09/10 00:01:59;;;;;;;22.23;19.83;;;;;;;;;;4979239;28;20074;-79
2023/09/10 00:04:26;;;;;;;22.38;20.00;;;;;;;;;;4979195;28;20050;-79
2023/09/10 00:06:55;;;;;;;22.58;19.00;;;;;;;;;;4980005;28;20062;-80
2023/09/10 00:09:21;;;;;;;22.83;19.00;;;;;;;;;;4981475;28;20042;-79
2023/09/10 00:11:48;;;;;;;20.67;18.50;;;;;;;;;;4981084;28;20053;-80
2023/09/10 00:14:14;;;;;;;21.70;19.45;;;;;;;;;;4981119;28;20050;-80
2023/09/10 00:16:41;;;;;;;21.52;18.40;;;;;;;;;;4979797;28;20047;-80
2023/09/10 00:19:07;;;;;;;22.55;18.88;;;;;;;;;;4979186;28;20057;-80
2023/09/10 00:21:34;;;;;;;22.90;19.52;;;;;;;;;;4979391;28;20057;-80
2023/09/10 00:24:03;;;;;;;25.05;19.95;;;;;;;;;;4978842;28;20137;-80
2023/09/10 00:26:29;;;;;;;21.33;19.02;;;;;;;;;;4978915;28;20521;-80
2023/09/10 00:28:56;;;;;;;22.52;19.33;;;;;;;;;;4979441;28;20492;-80
2023/09/10 00:31:22;;;;;;;21.55;19.30;;;;;;;;;;4979477;28;20053;-80
2023/09/10 00:33:49;;;;;;;22.02;18.95;;;;;;;;;;4973922;28;20046;-80
2023/09/10 00:36:15;;;;;;;22.33;19.83;;;;;;;;;;4959299;28;20062;-80
2023/09/10 00:38:42;;;;;;;22.00;19.70;;;;;;;;;;4959112;28;20057;-80
2023/09/10 00:41:10;;;;;;;21.08;18.77;;;;;;;;;;4972043;28;20047;-80
2023/09/10 00:43:37;;;;;;;22.67;20.15;;;;;;;;;;4963564;28;20057;-81
2023/09/10 00:46:04;;;;;;;21.92;19.15;;;;;;;;;;4976897;28;20424;-80
2023/09/10 00:48:32;;;;;;;22.38;19.98;;;;;;;;;;4977013;28;20051;-80
2023/09/10 00:50:58;;;;;;;23.52;20.70;;;;;;;;;;4976970;28;20054;-80
2023/09/10 00:53:25;;;;;;;23.02;19.20;;;;;;;;;;4978195;28;20043;-80
2023/09/10 00:55:53;;;;;;;22.67;20.25;;;;;;;;;;4978093;28;20420;-80
2023/09/10 00:58:21;;;;;;;24.50;20.27;;;;;;;;;;4976174;28;20053;-80
2023/09/10 01:00:49;;;;;;;21.42;18.90;;;;;;;;;;4975109;28;20054;-80
2023/09/10 01:03:16;;;;;;;22.52;19.88;;;;;;;;;;4976265;28;20057;-80
2023/09/10 01:05:42;;;;;;;22.25;19.92;;;;;;;;;;4975910;28;20050;-80
2023/09/10 01:08:09;;;;;;;22.08;19.60;;;;;;;;;;4976744;28;20047;-81
2023/09/10 01:10:44;;;;;;;21.80;19.17;;;;;;;;;;4976280;28;20047;-80
2023/09/10 01:13:16;;;;;;;22.55;19.98;;;;;;;;;;4976373;28;20047;-80
2023/09/10 01:15:51;;;;;;;21.38;18.98;;;;;;;;;;4974481;28;20505;-80
2023/09/10 01:18:23;;;;;;;22.75;19.58;;;;;;;;;;4967869;28;20059;-79
2023/09/10 01:21:14;;;;;;;21.25;18.98;;;;;;;;;;4958719;29;20043;-80
2023/09/10 01:23:51;;;;;;;24.33;19.13;;;;;;;;;;4961274;28;20058;-80
2023/09/10 01:26:19;;;;;;;21.95;19.65;;;;;;;;;;4977801;28;20051;-80
2023/09/10 01:28:46;;;;;;;22.88;19.88;;;;;;;;;;4961482;28;20047;-80
2023/09/10 01:31:13;;;;;;;22.23;19.02;;;;;;;;;;4959455;28;20051;-80
2023/09/10 01:33:42;;;;;;;21.95;19.60;;;;;;;;;;4959661;29;20071;-80
2023/09/10 01:36:12;;;;;;;21.33;18.88;;;;;;;;;;4963574;28;20043;-80
2023/09/10 01:38:44;;;;;;;20.60;18.05;;;;;;;;;;4976682;28;20057;-80
2023/09/10 01:41:14;;;;;;;22.17;19.25;;;;;;;;;;4978596;28;20061;-80
2023/09/10 01:43:42;;;;;;;21.88;18.50;;;;;;;;;;4978736;28;20047;-80
2023/09/10 01:46:09;;;;;;;21.92;18.80;;;;;;;;;;4978123;28;20053;-80
2023/09/10 01:48:36;;;;;;;21.33;19.00;;;;;;;;;;4964539;28;20426;-80
2023/09/10 01:51:03;;;;;;;20.73;18.00;;;;;;;;;;4959118;29;20082;-80
2023/09/10 01:53:30;;;;;;;21.65;19.02;;;;;;;;;;4959062;28;20047;-80
2023/09/10 01:55:56;;;;;;;22.75;19.63;;;;;;;;;;4959530;29;20055;-80
2023/09/10 01:58:23;;;;;;;20.95;18.33;;;;;;;;;;4973462;28;20056;-80
2023/09/10 02:00:51;;;;;;;21.42;19.13;;;;;;;;;;4960250;28;20047;-80
2023/09/10 02:03:18;;;;;;;21.23;18.45;;;;;;;;;;4979009;28;20050;-80
2023/09/10 02:05:45;;;;;;;21.75;18.85;;;;;;;;;;4984350;28;20051;-79
2023/09/10 02:08:11;;;;;;;21.83;19.52;;;;;;;;;;4976112;28;20043;-78
2023/09/10 02:10:38;;;;;;;21.58;19.27;;;;;;;;;;4967501;28;20053;-79
2023/09/10 02:13:04;;;;;;;21.05;18.75;;;;;;;;;;4970537;28;20106;-79
2023/09/10 02:15:31;;;;;;;21.75;18.30;;;;;;;;;;4971149;28;20091;-79
2023/09/10 02:17:59;;;;;;;20.52;18.40;;;;;;;;;;4971346;28;20452;-80
2023/09/10 02:20:26;;;;;;;21.77;19.10;;;;;;;;;;4976625;28;20062;-79
2023/09/10 02:22:52;;;;;;;20.83;18.13;;;;;;;;;;4967574;28;20057;-80
2023/09/10 02:25:19;;;;;;;21.08;18.80;;;;;;;;;;4976127;28;20572;-80
2023/09/10 02:27:45;;;;;;;21.52;18.88;;;;;;;;;;4976251;28;20055;-80
2023/09/10 02:30:12;;;;;;;23.13;19.27;;;;;;;;;;4976747;28;20047;-80
2023/09/10 02:32:39;;;;;;;20.60;18.42;;;;;;;;;;4977061;28;20138;-80
2023/09/10 02:35:08;;;;;;;22.15;19.35;;;;;;;;;;4976065;28;20050;-80
2023/09/10 02:37:34;;;;;;;21.83;19.42;;;;;;;;;;4976805;28;20057;-80
2023/09/10 02:40:01;;;;;;;21.98;19.67;;;;;;;;;;4976321;28;20047;-81
2023/09/10 02:42:27;;;;;;;24.15;21.55;;;;;;;;;;4971321;28;20047;-81
2023/09/10 02:44:54;;;;;;;25.15;22.30;;;;;;;;;;4956986;29;20500;-80
2023/09/10 02:47:20;;;;;;;27.73;23.25;;;;;;;;;;4956047;29;20051;-80
2023/09/10 02:49:47;;;;;;;24.63;22.00;;;;;;;;;;4956333;28;20049;-81
2023/09/10 02:52:15;;;;;;;25.48;22.77;;;;;;;;;;4957229;28;20065;-79
2023/09/10 02:54:41;;;;;;;24.63;22.05;;;;;;;;;;4957139;29;20047;-80
2023/09/10 02:57:08;;;;;;;25.75;22.77;;;;;;;;;;4956947;29;20053;-80
2023/09/10 02:59:35;;;;;;;25.40;22.65;;;;;;;;;;4972973;28;20093;-79
2023/09/10 03:02:01;;;;;;;24.75;22.08;;;;;;;;;;4978801;28;20496;-79
2023/09/10 03:04:28;;;;;;;24.65;21.80;;;;;;;;;;4960568;28;20055;-79
2023/09/10 03:06:55;;;;;;;25.50;22.35;;;;;;;;;;4959808;29;20054;-80
2023/09/10 03:09:23;;;;;;;25.80;22.08;;;;;;;;;;4961705;28;20083;-80
2023/09/10 03:11:49;;;;;;;24.42;21.65;;;;;;;;;;4961929;28;20049;-79
2023/09/10 03:14:16;;;;;;;22.83;20.45;;;;;;;;;;4961669;29;20051;-79
2023/09/10 03:16:43;;;;;;;24.70;21.52;;;;;;;;;;4960174;28;20062;-81
2023/09/10 03:19:09;;;;;;;23.95;21.35;;;;;;;;;;4975040;28;20043;-80
2023/09/10 03:21:37;;;;;;;23.52;21.08;;;;;;;;;;4968747;28;20049;-80
2023/09/10 03:24:04;;;;;;;23.85;21.13;;;;;;;;;;4977046;28;20043;-80
2023/09/10 03:26:32;;;;;;;26.33;21.85;;;;;;;;;;4979770;28;20074;-81
2023/09/10 03:28:58;;;;;;;23.95;20.77;;;;;;;;;;4979579;28;20042;-80
2023/09/10 03:31:25;;;;;;;23.08;20.67;;;;;;;;;;4980174;28;20420;-80
2023/09/10 03:33:51;;;;;;;23.98;21.45;;;;;;;;;;4980313;28;20054;-80
2023/09/10 03:36:18;;;;;;;25.00;21.23;;;;;;;;;;4979250;28;20416;-80
2023/09/10 03:38:45;;;;;;;25.67;22.80;;;;;;;;;;4979290;28;20050;-80
2023/09/10 03:41:11;;;;;;;24.65;21.85;;;;;;;;;;4979782;28;20461;-80
2023/09/10 03:43:40;;;;;;;24.30;21.42;;;;;;;;;;4980144;28;20500;-80
2023/09/10 03:46:06;;;;;;;25.52;22.52;;;;;;;;;;4980153;28;20043;-80
2023/09/10 03:48:33;;;;;;;25.23;22.52;;;;;;;;;;4980245;28;20051;-80
2023/09/10 03:50:59;;;;;;;24.55;21.42;;;;;;;;;;4980656;28;20051;-80
2023/09/10 03:53:26;;;;;;;24.30;21.42;;;;;;;;;;4966059;28;20490;-80
2023/09/10 03:55:53;;;;;;;24.48;21.73;;;;;;;;;;4963166;28;20051;-80
2023/09/10 03:58:19;;;;;;;24.90;22.30;;;;;;;;;;4967416;28;20055;-79
2023/09/10 04:00:47;;;;;;;24.35;21.00;;;;;;;;;;4978477;28;20521;-80
2023/09/10 04:03:14;;;;;;;23.77;21.17;;;;;;;;;;4978421;28;20243;-80
2023/09/10 04:05:40;;;;;;;22.58;20.38;;;;;;;;;;4978794;28;20420;-79
2023/09/10 04:08:07;;;;;;;26.02;21.02;;;;;;;;;;4979017;28;20134;-80
2023/09/10 04:10:34;;;;;;;23.70;21.20;;;;;;;;;;4977650;28;20047;-79
2023/09/10 04:13:00;;;;;;;23.25;20.38;;;;;;;;;;4978101;28;20068;-79
2023/09/10 04:15:27;;;;;;;24.48;21.33;;;;;;;;;;4978885;28;20504;-79
2023/09/10 04:17:55;;;;;;;25.02;22.10;;;;;;;;;;4978522;28;20047;-80
2023/09/10 04:20:21;;;;;;;23.38;20.80;;;;;;;;;;4979082;28;20054;-80
2023/09/10 04:22:48;;;;;;;23.80;21.30;;;;;;;;;;4979111;28;20054;-80
2023/09/10 04:25:15;;;;;;;25.58;22.55;;;;;;;;;;4979406;28;20494;-79
2023/09/10 04:27:41;;;;;;;26.45;23.33;;;;;;;;;;4977920;28;20047;-80
2023/09/10 04:30:08;;;;;;;25.23;22.08;;;;;;;;;;4979778;28;20057;-79
2023/09/10 04:32:35;;;;;;;25.95;22.25;;;;;;;;;;4979578;28;20114;-79
2023/09/10 04:35:05;;;;;;;23.60;21.10;;;;;;;;;;4978900;28;20042;-79
2023/09/10 04:37:32;;;;;;;24.10;21.25;;;;;;;;;;4979015;28;20054;-79
2023/09/10 04:39:58;;;;;;;24.02;21.52;;;;;;;;;;4979994;28;20424;-79
2023/09/10 04:42:25;;;;;;;24.35;21.73;;;;;;;;;;4980958;28;20057;-79
2023/09/10 04:44:52;;;;;;;24.00;21.35;;;;;;;;;;4982410;28;20051;-79
2023/09/10 04:47:19;;;;;;;26.42;21.63;;;;;;;;;;4992863;28;20062;-79
2023/09/10 04:49:45;;;;;;;23.70;21.08;;;;;;;;;;4986210;28;20061;-79
2023/09/10 04:52:15;;;;;;;25.52;21.67;;;;;;;;;;4977516;28;20055;-79
2023/09/10 04:54:41;;;;;;;28.38;22.35;;;;;;;;;;4975115;28;20042;-79
2023/09/10 04:57:08;;;;;;;25.77;22.02;;;;;;;;;;4976789;28;20053;-78
2023/09/10 04:59:35;;;;;;;23.58;21.15;;;;;;;;;;4976628;28;20055;-79
2023/09/10 05:02:01;;;;;;;23.40;20.70;;;;;;;;;;4978950;28;20047;-80
2023/09/10 05:04:28;;;;;;;22.80;20.33;;;;;;;;;;4978743;28;20047;-80
2023/09/10 05:06:54;;;;;;;23.65;21.13;;;;;;;;;;4978297;28;20069;-80
2023/09/10 05:09:22;;;;;;;25.88;22.17;;;;;;;;;;4979127;28;20053;-79
2023/09/10 05:11:49;;;;;;;25.90;22.75;;;;;;;;;;4978263;28;20505;-79
2023/09/10 05:14:17;;;;;;;24.65;21.35;;;;;;;;;;4978288;28;20493;-80
2023/09/10 05:16:43;;;;;;;24.58;21.80;;;;;;;;;;4978155;28;20062;-79
2023/09/10 05:19:10;;;;;;;28.38;22.45;;;;;;;;;;4975002;28;20046;-79
2023/09/10 05:21:36;;;;;;;26.98;23.08;;;;;;;;;;4970153;28;20050;-80
2023/09/10 05:24:03;;;;;;;23.52;20.73;;;;;;;;;;4978159;28;20053;-79
2023/09/10 05:26:31;;;;;;;24.88;22.08;;;;;;;;;;4977901;28;20051;-80
2023/09/10 05:28:58;;;;;;;26.23;23.40;;;;;;;;;;4977549;28;20075;-79
2023/09/10 05:31:24;;;;;;;23.60;21.25;;;;;;;;;;4977767;28;20531;-79
2023/09/10 05:33:51;;;;;;;25.45;21.85;;;;;;;;;;4969670;28;20411;-79
2023/09/10 05:36:17;;;;;;;25.58;22.38;;;;;;;;;;4978460;28;20082;-79
2023/09/10 05:38:44;;;;;;;27.77;22.98;;;;;;;;;;4977711;28;20125;-79
2023/09/10 05:41:10;;;;;;;25.95;22.98;;;;;;;;;;4977625;28;20077;-79
2023/09/10 05:43:38;;;;;;;26.98;23.75;;;;;;;;;;4978124;28;20061;-80
2023/09/10 05:46:05;;;;;;;26.17;23.38;;;;;;;;;;4977915;28;20051;-79
2023/09/10 05:48:31;;;;;;;28.30;24.00;;;;;;;;;;4977379;28;20057;-80
2023/09/10 05:50:58;;;;;;;26.90;23.55;;;;;;;;;;4978233;28;20051;-79
2023/09/10 05:53:25;;;;;;;27.38;24.35;;;;;;;;;;4975754;28;20049;-80
2023/09/10 05:55:51;;;;;;;28.73;24.58;;;;;;;;;;4976991;28;20511;-80
2023/09/10 05:58:19;;;;;;;28.40;24.50;;;;;;;;;;4976356;28;20061;-80
2023/09/10 06:00:47;;;;;;;26.85;23.67;;;;;;;;;;4976448;28;20134;-79
2023/09/10 06:03:13;;;;;;;29.25;25.50;;;;;;;;;;4976358;28;20066;-79
2023/09/10 06:05:40;;;;;;;28.75;25.52;;;;;;;;;;4977738;28;20043;-79
2023/09/10 06:08:07;;;;;;;28.23;25.23;;;;;;;;;;4977218;28;20053;-80
2023/09/10 06:10:33;;;;;;;28.13;25.23;;;;;;;;;;4978021;28;20058;-79
2023/09/10 06:13:00;;;;;;;28.42;24.77;;;;;;;;;;4977707;28;20138;-79
2023/09/10 06:15:27;;;;;;;27.23;24.10;;;;;;;;;;4971655;28;20049;-79
2023/09/10 06:17:55;;;;;;;25.85;23.10;;;;;;;;;;4976614;28;20489;-79
2023/09/10 06:20:22;;;;;;;25.77;23.02;;;;;;;;;;4976903;28;20051;-80
2023/09/10 06:22:48;;;;;;;26.58;23.77;;;;;;;;;;4976931;28;20047;-79
2023/09/10 06:25:15;;;;;;;25.92;23.17;;;;;;;;;;4976550;28;20050;-79
2023/09/10 06:27:41;;;;;;;26.38;23.52;;;;;;;;;;4976396;28;20047;-80
2023/09/10 06:30:08;;;;;;;25.48;22.88;;;;;;;;;;4976454;28;20440;-78
2023/09/10 06:32:35;;;;;;;28.50;25.50;;;;;;;;;;4976936;28;20055;-79
2023/09/10 06:35:03;;;;;;;27.40;24.50;;;;;;;;;;4974748;28;20059;-79
2023/09/10 06:37:30;;;;;;;25.42;22.83;;;;;;;;;;4980701;28;20046;-79
2023/09/10 06:39:56;;;;;;;23.90;21.40;;;;;;;;;;4980752;28;20524;-80
2023/09/10 06:42:23;;;;;;;25.25;22.55;;;;;;;;;;4981546;28;20416;-80
2023/09/10 06:44:49;;;;;;;25.80;21.75;;;;;;;;;;4982717;28;20054;-79
2023/09/10 06:47:16;;;;;;;24.20;21.30;;;;;;;;;;4983053;28;20047;-80
2023/09/10 06:49:42;;;;;;;22.23;19.48;;;;;;;;;;4986911;28;20055;-79
2023/09/10 06:52:10;;;;;;;21.42;19.23;;;;;;;;;;4975876;28;20138;-80
2023/09/10 06:54:37;;;;;;;20.60;18.45;;;;;;;;;;4968844;28;20481;-79
2023/09/10 06:57:04;;;;;;;20.35;18.25;;;;;;;;;;4980711;28;20356;-78
2023/09/10 06:59:31;;;;;;;21.42;19.13;;;;;;;;;;4979690;28;20051;-79
2023/09/10 07:01:57;;;;;;;21.10;19.00;;;;;;;;;;4973881;28;20046;-78
2023/09/10 07:04:25;;;;;;;21.13;18.88;;;;;;;;;;4979269;28;20046;-79
2023/09/10 07:06:53;;;;;;;23.45;20.98;;;;;;;;;;4979580;28;20065;-80
2023/09/10 07:09:22;;;;;;;25.13;22.08;;;;;;;;;;4979527;28;20053;-80
2023/09/10 07:11:48;;;;;;;24.58;21.95;;;;;;;;;;4979968;28;20054;-80
2023/09/10 07:14:15;;;;;;;23.00;20.45;;;;;;;;;;4979202;28;20050;-80
2023/09/10 07:16:42;;;;;;;22.25;19.90;;;;;;;;;;4979751;28;20150;-80
2023/09/10 07:19:08;;;;;;;22.90;20.40;;;;;;;;;;4972206;28;20121;-80
2023/09/10 07:21:36;;;;;;;23.58;21.08;;;;;;;;;;4979756;28;20051;-80
2023/09/10 07:24:06;;;;;;;22.23;19.83;;;;;;;;;;4979081;28;20051;-80
2023/09/10 07:26:34;;;;;;;21.05;18.15;;;;;;;;;;4960093;28;20106;-80
2023/09/10 07:29:00;;;;;;;18.67;16.77;;;;;;;;;;4976803;28;20054;-80
2023/09/10 07:31:27;;;;;;;19.58;17.50;;;;;;;;;;4979875;28;20428;-80
2023/09/10 07:33:54;;;;;;;19.65;17.65;;;;;;;;;;4978563;28;20054;-80
2023/09/10 07:36:20;;;;;;;18.10;16.27;;;;;;;;;;4973357;28;20049;-79
2023/09/10 07:38:47;;;;;;;18.45;16.55;;;;;;;;;;4978855;28;20047;-79
2023/09/10 07:41:13;;;;;;;18.15;16.13;;;;;;;;;;4979397;28;20056;-80
2023/09/10 07:43:41;;;;;;;19.20;17.20;;;;;;;;;;4979373;28;20057;-80
2023/09/10 07:46:08;;;;;;;18.95;17.02;;;;;;;;;;4965661;28;20058;-80
2023/09/10 07:48:35;;;;;;;18.40;16.33;;;;;;;;;;4959392;28;20050;-80
2023/09/10 07:51:02;;;;;;;18.00;16.05;;;;;;;;;;4960023;29;20158;-80
2023/09/10 07:53:29;;;;;;;18.23;16.40;;;;;;;;;;4964966;28;20050;-80
2023/09/10 07:55:56;;;;;;;18.73;16.63;;;;;;;;;;4970340;28;20049;-80
2023/09/10 07:58:23;;;;;;;18.90;16.88;;;;;;;;;;4979218;28;20435;-80
2023/09/10 08:00:54;;;;;;;18.60;16.70;;;;;;;;;;4972392;28;20066;-80
2023/09/10 08:03:21;;;;;;;19.05;17.15;;;;;;;;;;4971954;28;20417;-80
2023/09/10 08:05:48;;;;;;;17.52;15.63;;;;;;;;;;4979422;28;20047;-80
2023/09/10 08:08:14;;;;;;;17.50;15.80;;;;;;;;;;4976071;28;20129;-80
2023/09/10 08:10:44;;;;;;;19.02;17.13;;;;;;;;;;4977254;28;20134;-81
2023/09/10 08:13:12;;;;;;;17.25;15.25;;;;;;;;;;4978585;28;20129;-80
2023/09/10 08:15:38;;;;;;;16.85;15.05;;;;;;;;;;4975566;28;20059;-81
2023/09/10 08:18:10;;;;;;;16.05;14.40;;;;;;;;;;4973714;28;20104;-81
2023/09/10 08:20:37;;;;;;;16.85;15.15;;;;;;;;;;4977876;28;20043;-82
2023/09/10 08:23:04;;;;;;;16.17;14.57;;;;;;;;;;4979235;28;20070;-79
2023/09/10 08:25:31;;;;;;;15.75;14.25;;;;;;;;;;4978777;28;20130;-80
2023/09/10 08:27:58;;;;;;;15.48;13.10;;;;;;;;;;4981833;28;20043;-81
2023/09/10 08:30:25;;;;;;;15.52;14.00;;;;;;;;;;4984565;28;20046;-81
2023/09/10 08:32:52;;;;;;;15.15;13.65;;;;;;;;;;4983035;28;20043;-80
2023/09/10 08:35:20;;;;;;;14.43;12.93;;;;;;;;;;4982613;28;20517;-80
2023/09/10 08:37:47;;;;;;;19.75;13.05;;;;;;;;;;4980092;28;20061;-80
2023/09/10 08:40:26;;;;;;;14.07;12.63;;;;;;;;;;4979992;28;20486;-84
2023/09/10 08:42:56;;;;;;;15.35;13.32;;;;;;;;;;4969245;28;20429;-80
2023/09/10 08:45:23;;;;;;;14.63;12.65;;;;;;;;;;4973467;28;20062;-84
2023/09/10 08:47:54;;;;;;;18.55;13.45;;;;;;;;;;4971167;28;20054;-84
2023/09/10 08:50:24;;;;;;;14.15;12.70;;;;;;;;;;4974548;28;20047;-84
2023/09/10 08:52:53;;;;;;;15.63;13.90;;;;;;;;;;4980066;28;20074;-83
2023/09/10 08:55:20;;;;;;;14.52;13.13;;;;;;;;;;4991658;28;20051;-84
2023/09/10 08:57:48;;;;;;;14.65;12.73;;;;;;;;;;4976979;28;20133;-83
2023/09/10 09:00:16;;;;;;;15.85;12.38;;;;;;;;;;4975301;28;20055;-83
2023/09/10 09:02:45;;;;;;;14.55;12.98;;;;;;;;;;4977238;28;20508;-83
2023/09/10 09:05:13;;;;;;;13.37;11.80;;;;;;;;;;4977116;28;20051;-83
2023/09/10 09:07:46;;;;;;;12.95;11.70;;;;;;;;;;4975698;28;20046;-83
2023/09/10 09:10:19;;;;;;;12.85;11.68;;;;;;;;;;4975483;28;20042;-84
2023/09/10 09:12:47;;;;;;;13.90;12.30;;;;;;;;;;4975568;28;20051;-83
2023/09/10 09:15:15;;;;;;;13.98;12.65;;;;;;;;;;4975435;28;20065;-83
2023/09/10 09:17:42;;;;;;;13.82;12.18;;;;;;;;;;4983587;28;20043;-83
2023/09/10 09:20:11;;;;;;;14.15;12.57;;;;;;;;;;4987372;28;20074;-84
2023/09/10 09:22:46;;;;;;;13.30;11.90;;;;;;;;;;4977311;28;20046;-84
2023/09/10 09:25:13;;;;;;;12.05;10.85;;;;;;;;;;4974684;28;20051;-84
2023/09/10 09:27:42;;;;;;;13.63;12.18;;;;;;;;;;4965391;28;20055;-85
2023/09/10 09:30:09;;;;;;;13.45;12.05;;;;;;;;;;4974836;28;20434;-86
2023/09/10 09:32:37;;;;;;;12.38;11.18;;;;;;;;;;4972043;28;20046;-82
2023/09/10 09:35:04;;;;;;;28.90;20.70;;;;;;;;;;4972631;28;20451;-85
2023/09/10 09:37:34;;;;;;;16.48;14.02;;;;;;;;;;4970800;28;20105;-83
2023/09/10 09:40:16;;;;;;;13.50;12.13;;;;;;;;;;4973266;28;20039;-86
2023/09/10 09:42:46;;;;;;;30.77;21.80;;;;;;;;;;4959752;29;20317;-84
2023/09/10 09:45:25;;;;;;;14.55;12.35;;;;;;;;;;4962893;28;20051;-85
2023/09/10 09:47:52;;;;;;;19.42;16.23;;;;;;;;;;4975830;28;20441;-81
2023/09/10 09:50:20;;;;;;;25.92;20.00;;;;;;;;;;4968544;28;20043;-82
2023/09/10 09:52:51;;;;;;;13.80;12.35;;;;;;;;;;4959974;29;20054;-84
2023/09/10 09:55:19;;;;;;;20.42;16.50;;;;;;;;;;4968984;28;20106;-83
2023/09/10 09:57:46;;;;;;;16.63;13.35;;;;;;;;;;4975581;28;20115;-82
2023/09/10 10:00:14;;;;;;;14.38;12.25;;;;;;;;;;4984592;28;20077;-83
2023/09/10 10:02:45;;;;;;;16.23;12.70;;;;;;;;;;4969612;28;20045;-82
2023/09/10 10:05:14;;;;;;;11.43;10.07;;;;;;;;;;4979852;28;20067;-83
2023/09/10 10:07:50;;;;;;;16.10;10.02;;;;;;;;;;4983704;28;20501;-82
2023/09/10 10:10:19;;;;;;;10.80;9.32;;;;;;;;;;4966169;28;20500;-84
2023/09/10 10:12:57;;;;;;;11.52;10.32;;;;;;;;;;4968112;28;20051;-82
2023/09/10 10:15:25;;;;;;;13.20;9.88;;;;;;;;;;4961511;28;20055;-83
2023/09/10 10:17:54;;;;;;;13.75;10.38;;;;;;;;;;4962601;29;20055;-79
2023/09/10 10:20:21;;;;;;;11.73;10.52;;;;;;;;;;4961936;28;20580;-82
2023/09/10 10:22:49;;;;;;;11.60;10.40;;;;;;;;;;4968613;28;20053;-84
2023/09/10 10:25:16;;;;;;;11.68;9.50;;;;;;;;;;4967351;28;20474;-81
2023/09/10 10:27:43;;;;;;;10.05;8.52;;;;;;;;;;4957221;28;20152;-81
2023/09/10 10:30:13;;;;;;;9.57;8.57;;;;;;;;;;4975491;28;20059;-83
2023/09/10 10:32:42;;;;;;;10.90;9.80;;;;;;;;;;4978278;28;20042;-82
2023/09/10 10:35:11;;;;;;;11.10;8.98;;;;;;;;;;4975182;28;20053;-80
2023/09/10 10:37:47;;;;;;;10.85;8.65;;;;;;;;;;4977310;28;20057;-80
2023/09/10 10:40:17;;;;;;;11.48;8.85;;;;;;;;;;4973240;28;20061;-82
2023/09/10 10:42:50;;;;;;;11.32;8.80;;;;;;;;;;4967462;28;20047;-81
2023/09/10 10:45:20;;;;;;;14.07;9.55;;;;;;;;;;4971803;28;20055;-80
2023/09/10 10:47:48;;;;;;;10.88;8.93;;;;;;;;;;4980494;28;20047;-81
2023/09/10 10:50:22;;;;;;;10.73;9.63;;;;;;;;;;4982272;28;20141;-83
2023/09/10 10:52:56;;;;;;;13.23;9.45;;;;;;;;;;4971845;28;20051;-82
2023/09/10 10:58:05;;;;;;;9.48;8.52;;;;;;;;;;4968932;28;20050;-84
2023/09/10 11:00:42;;;;;;;11.05;8.05;;;;;;;;;;4966333;28;20125;-84
2023/09/10 11:03:10;;;;;;;9.38;7.47;;;;;;;;;;4968316;28;20053;-79
2023/09/10 11:06:05;;;;;;;9.70;8.13;;;;;;;;;;4976283;28;20035;-83
2023/09/10 11:08:33;;;;;;;9.63;8.07;;;;;;;;;;4981281;28;20047;-83
2023/09/10 11:11:01;;;;;;;9.27;8.25;;;;;;;;;;4984015;28;20121;-83
2023/09/10 11:13:28;;;;;;;10.48;7.95;;;;;;;;;;4979856;28;20138;-83
2023/09/10 11:16:17;;;;;;;9.25;8.20;;;;;;;;;;4972428;28;20047;-83
2023/09/10 11:18:44;;;;;;;;;;;;;;;;;;4970589;28;20049;-83
2023/09/10 11:21:11;;;;;;;9.18;7.55;;;;;;;;;;4971708;28;19926;-83
2023/09/10 11:23:39;;;;;;;12.25;8.50;;;;;;;;;;4972033;28;20043;-83
2023/09/10 11:26:31;;;;;;;8.82;7.50;;;;;;;;;;4970594;28;20053;-82
2023/09/10 11:28:59;;;;;;;9.77;7.93;;;;;;;;;;4978403;28;20840;-82
2023/09/10 11:31:41;;;;;;;9.70;8.02;;;;;;;;;;4973212;28;20047;-82
2023/09/10 11:34:44;;;;;;;9.15;8.25;;;;;;;;;;4977878;28;20043;-83
2023/09/10 11:37:12;;;;;;;9.40;8.40;;;;;;;;;;4977250;28;20062;-83
2023/09/10 11:39:38;;;;;;;9.82;8.70;;;;;;;;;;4978635;28;20077;-83
2023/09/10 11:42:09;;;;;;;12.68;9.13;;;;;;;;;;4977858;28;20070;-83
2023/09/10 11:44:37;;;;;;;10.00;8.90;;;;;;;;;;4976504;28;20077;-83
2023/09/10 11:47:05;;;;;;;11.73;8.88;;;;;;;;;;4975906;28;20046;-83
2023/09/10 11:49:32;;;;;;;9.85;8.90;;;;;;;;;;4978341;28;20106;-81
2023/09/10 11:51:58;;;;;;;10.27;9.07;;;;;;;;;;4971901;28;20110;-84
2023/09/10 11:54:26;;;;;;;9.20;8.30;;;;;;;;;;4974108;28;20108;-82
2023/09/10 11:56:56;;;;;;;9.20;8.13;;;;;;;;;;4974267;28;20404;-83
2023/09/10 11:59:25;;;;;;;10.48;8.45;;;;;;;;;;4981420;28;20065;-82
2023/09/10 12:01:54;;;;;;;9.15;8.25;;;;;;;;;;4983805;28;20543;-85
2023/09/10 12:04:26;;;;;;;9.50;8.38;;;;;;;;;;4991099;28;20043;-83
2023/09/10 12:06:53;;;;;;;9.77;8.88;;;;;;;;;;4990907;28;20098;-84
2023/09/10 12:09:19;;;;;;;10.15;8.23;;;;;;;;;;4987427;28;20394;-84
2023/09/10 12:11:48;;;;;;;9.38;8.48;;;;;;;;;;4981287;28;20074;-83
2023/09/10 12:14:22;;;;;;;9.32;8.15;;;;;;;;;;4972575;28;20046;-85
2023/09/10 12:16:49;;;;;;;9.50;8.23;;;;;;;;;;4979176;28;20067;-83
2023/09/10 12:19:16;;;;;;;9.10;8.20;;;;;;;;;;4975849;28;20078;-85
2023/09/10 12:21:47;;;;;;;12.48;8.77;;;;;;;;;;4977291;28;20387;-85
2023/09/10 12:24:14;;;;;;;15.45;9.07;;;;;;;;;;4970208;28;20089;-82
2023/09/10 12:26:41;;;;;;;10.40;9.35;;;;;;;;;;4974346;28;20357;-82
2023/09/10 12:29:07;;;;;;;10.80;9.70;;;;;;;;;;4974741;28;20047;-80
2023/09/10 12:31:40;;;;;;;10.85;9.63;;;;;;;;;;4971567;28;20077;-83
2023/09/10 12:34:17;;;;;;;11.07;10.00;;;;;;;;;;4972347;28;20101;-84
2023/09/10 12:36:50;;;;;;;11.40;9.93;;;;;;;;;;4971657;28;20118;-83
2023/09/10 12:39:21;;;;;;;18.60;10.18;;;;;;;;;;4965728;28;20050;-82
2023/09/10 12:41:49;;;;;;;24.23;10.50;;;;;;;;;;4972754;28;20134;-81
2023/09/10 12:44:29;;;;;;;14.65;10.20;;;;;;;;;;4970181;28;20555;-84
2023/09/10 12:46:56;;;;;;;13.40;10.43;;;;;;;;;;4970400;28;20071;-82
2023/09/10 12:49:23;;;;;;;13.55;10.18;;;;;;;;;;4970328;28;20058;-81
2023/09/10 12:51:51;;;;;;;11.75;10.55;;;;;;;;;;4967316;28;20043;-81
2023/09/10 12:54:18;;;;;;;11.90;9.82;;;;;;;;;;4974461;28;20058;-79
2023/09/10 12:56:48;;;;;;;10.07;9.02;;;;;;;;;;4967682;28;20416;-77
2023/09/10 12:59:15;;;;;;;10.52;9.52;;;;;;;;;;4964916;28;20049;-80
2023/09/10 13:01:42;;;;;;;10.50;9.40;;;;;;;;;;4966394;28;20053;-79
2023/09/10 13:04:08;;;;;;;13.45;9.32;;;;;;;;;;4960267;28;20066;-79
2023/09/10 13:06:35;;;;;;;9.15;8.25;;;;;;;;;;4972333;28;20597;-80
2023/09/10 13:09:04;;;;;;;9.75;8.75;;;;;;;;;;4972398;28;20043;-80
2023/09/10 13:11:31;;;;;;;11.10;8.98;;;;;;;;;;4969573;28;20417;-78
2023/09/10 13:14:00;;;;;;;10.93;8.52;;;;;;;;;;4967625;28;20487;-80
2023/09/10 13:16:27;;;;;;;11.80;8.80;;;;;;;;;;4972350;28;20053;-80
2023/09/10 13:18:54;;;;;;;9.75;8.60;;;;;;;;;;4972014;28;20348;-80
2023/09/10 13:21:20;;;;;;;10.52;8.75;;;;;;;;;;4970588;28;20057;-80
2023/09/10 13:23:47;;;;;;;10.27;9.13;;;;;;;;;;4972498;28;20373;-79
2023/09/10 13:26:15;;;;;;;10.52;8.05;;;;;;;;;;4971827;28;20046;-80
2023/09/10 13:28:41;;;;;;;9.10;8.02;;;;;;;;;;4969722;28;20043;-79
2023/09/10 13:31:08;;;;;;;9.73;7.82;;;;;;;;;;4969816;28;20049;-79
2023/09/10 13:33:34;;;;;;;10.23;8.20;;;;;;;;;;4966583;28;20047;-80
2023/09/10 13:36:01;;;;;;;10.05;8.90;;;;;;;;;;4982351;23;20046;-84
2023/09/10 13:38:30;;;;;;;9.73;8.50;;;;;;;;;;4956237;28;20047;-84
2023/09/10 13:40:56;;;;;;;10.40;8.43;;;;;;;;;;4970804;28;20047;-81
2023/09/10 13:43:24;;;;;;;12.43;9.20;;;;;;;;;;4970310;28;20046;-84
2023/09/10 13:45:51;;;;;;;14.05;9.18;;;;;;;;;;4970471;28;20126;-78
2023/09/10 13:48:27;;;;;;;12.10;8.70;;;;;;;;;;4968868;28;20489;-80
2023/09/10 13:50:53;;;;;;;9.82;8.75;;;;;;;;;;4969102;28;20046;-79
2023/09/10 13:53:20;;;;;;;8.68;7.88;;;;;;;;;;4963751;28;20054;-80
2023/09/10 13:55:47;;;;;;;8.93;8.02;;;;;;;;;;4962748;28;20047;-81
2023/09/10 13:58:16;;;;;;;10.98;9.10;;;;;;;;;;4969437;28;20051;-83
2023/09/10 14:00:44;;;;;;;11.50;8.95;;;;;;;;;;4963026;28;20050;-83
2023/09/10 14:03:12;;;;;;;13.27;8.43;;;;;;;;;;4962418;28;20051;-82
2023/09/10 14:05:39;;;;;;;9.40;7.90;;;;;;;;;;4975751;28;20106;-83
2023/09/10 14:08:08;;;;;;;11.85;8.90;;;;;;;;;;4972382;28;20484;-85
2023/09/10 14:10:38;;;;;;;13.73;8.63;;;;;;;;;;4967572;28;20054;-86
2023/09/10 14:13:05;;;;;;;11.52;9.52;;;;;;;;;;4970479;28;20497;-82
2023/09/10 14:15:32;;;;;;;8.95;8.05;;;;;;;;;;4966198;28;20258;-81
2023/09/10 14:18:00;;;;;;;9.68;8.32;;;;;;;;;;4966369;28;20043;-83
2023/09/10 14:20:28;;;;;;;9.52;8.32;;;;;;;;;;4976849;28;20055;-84
2023/09/10 14:22:56;;;;;;;9.00;8.10;;;;;;;;;;4970794;28;20058;-83
2023/09/10 14:25:22;;;;;;;8.82;7.85;;;;;;;;;;4971294;28;20105;-84
2023/09/10 14:27:49;;;;;;;9.80;8.30;;;;;;;;;;4972080;28;20391;-84
2023/09/10 14:30:16;;;;;;;8.77;7.97;;;;;;;;;;4965309;28;20158;-85